CheckWX is a tool to help pilots better visualize weather data.  It is not intended as a substitute for an official pre-flight weather briefing.

13:42:06 UTC

KIPL METAR
Imperial County Airport
Imperial, California, USA
Current

49 mins ago

KIPL 201253Z AUTO 16003KT 10SM CLR 28/01 A2974 RMK AO2 SLP072 T02830006
Observed
Jul-20 @ 12:53 UTC
Wind
  • 160° at 3 KTS
Visibility
10 SM
Flight Rules
VFR
Cloud Levels
  • Clear skies
Temperature
28°C / 82°F
Dewpoint
C / 34°F
Humidity
17%
Altimeter
29.74" Hg
Pressure
1007.12 hPa
Previous

2 hours ago

KIPL 201153Z AUTO 28012KT 10SM CLR 29/02 A2972 RMK AO2 SLP065 T02890017 10311 20278 53000
Observed
Jul-20 @ 11:53 UTC
Wind
  • 280° at 12 KTS
Visibility
10 SM
Flight Rules
VFR
Cloud Levels
  • Clear skies
Temperature
29°C / 84°F
Dewpoint
C / 36°F
Humidity
18%
Altimeter
29.72" Hg
Pressure
1006.42 hPa
Previous

3 hours ago

KIPL 201053Z AUTO 25012KT 10SM CLR 30/01 A2971 RMK AO2 SLP061 T03000011
Observed
Jul-20 @ 10:53 UTC
Wind
  • 250° at 12 KTS
Visibility
10 SM
Flight Rules
VFR
Cloud Levels
  • Clear skies
Temperature
30°C / 86°F
Dewpoint
C / 34°F
Humidity
15%
Altimeter
29.71" Hg
Pressure
1006.12 hPa